createdAt,value
2023-05-10T00:01:31.860Z,100222.39
2023-05-10T00:06:35.139Z,100213.38
2023-05-10T00:11:37.551Z,100212.41
2023-05-10T00:16:41.125Z,100212.46
2023-05-10T00:21:44.401Z,100208.81
2023-05-10T00:26:46.389Z,100199.42
2023-05-10T00:31:50.383Z,100196.22
2023-05-10T00:36:56.924Z,100196.39
2023-05-10T00:42:02.242Z,100193.05
2023-05-10T00:47:05.942Z,100191.30
2023-05-10T00:52:10.377Z,100185.91
2023-05-10T00:57:14.783Z,100190.31
2023-05-10T01:02:17.663Z,100187.29
2023-05-10T01:07:21.026Z,100188.43
2023-05-10T01:12:23.420Z,100189.41
2023-05-10T01:17:27.278Z,100186.76
2023-05-10T01:23:19.411Z,100180.45
2023-05-10T01:28:50.620Z,100179.10
2023-05-10T01:34:02.809Z,100175.91
2023-05-10T01:39:23.212Z,100175.30
2023-05-10T01:44:55.088Z,100169.70
2023-05-10T01:50:05.051Z,100174.92
2023-05-10T01:55:14.469Z,100173.66
2023-05-10T02:00:21.377Z,100169.08
2023-05-10T02:05:25.848Z,100171.84
2023-05-10T02:10:30.532Z,100167.43
2023-05-10T02:15:34.977Z,100163.84
2023-05-10T02:20:40.436Z,100161.38
2023-05-10T02:25:45.318Z,100156.41
2023-05-10T02:30:49.072Z,100149.77
2023-05-10T02:35:53.824Z,100148.67
2023-05-10T02:40:57.510Z,100146.88
2023-05-10T02:46:00.088Z,100145.81
2023-05-10T02:51:08.747Z,100148.73
2023-05-10T02:56:16.883Z,100146.50
2023-05-10T03:01:21.970Z,100142.51
2023-05-10T03:06:27.228Z,100139.16
2023-05-10T03:11:34.127Z,100139.81
2023-05-10T03:16:54.737Z,100142.18
2023-05-10T03:22:06.391Z,100144.67
2023-05-10T03:27:11.876Z,100146.77
2023-05-10T03:32:15.965Z,100142.97
2023-05-10T03:37:18.946Z,100133.87
2023-05-10T03:42:21.242Z,100129.11
2023-05-10T03:47:24.214Z,100129.71
2023-05-10T03:52:27.786Z,100127.85
2023-05-10T03:57:32.063Z,100130.66
2023-05-10T04:02:36.236Z,100124.43
2023-05-10T04:07:40.495Z,100122.94
2023-05-10T04:12:44.078Z,100123.65
2023-05-10T04:17:48.353Z,100121.73
2023-05-10T04:22:51.901Z,100119.80
2023-05-10T04:27:57.659Z,100126.21
2023-05-10T04:33:00.759Z,100125.39
2023-05-10T04:38:03.977Z,100127.88
2023-05-10T04:43:08.258Z,100130.48
2023-05-10T04:48:12.555Z,100135.98
2023-05-10T04:53:16.236Z,100131.50
2023-05-10T04:58:20.073Z,100134.63
2023-05-10T05:04:00.913Z,100132.70
2023-05-10T05:09:04.208Z,100132.52
2023-05-10T05:14:07.848Z,100126.02
2023-05-10T05:19:11.625Z,100124.38
2023-05-10T05:24:14.241Z,100125.25
2023-05-10T05:29:17.820Z,100123.01
2023-05-10T05:34:22.549Z,100121.44
2023-05-10T05:39:25.727Z,100121.52
2023-05-10T05:44:31.452Z,100128.00
2023-05-10T05:49:34.576Z,100124.75
2023-05-10T05:54:39.203Z,100124.77
2023-05-10T05:59:45.290Z,100127.27
2023-05-10T06:04:49.276Z,100129.85
2023-05-10T06:09:52.588Z,100131.64
2023-05-10T06:14:55.353Z,100126.12
2023-05-10T06:19:58.369Z,100130.13
2023-05-10T06:25:02.031Z,100133.39
2023-05-10T06:30:12.764Z,100131.88
2023-05-10T06:35:17.580Z,100133.70
2023-05-10T06:40:21.361Z,100131.23
2023-05-10T06:45:24.399Z,100130.85
2023-05-10T06:50:26.751Z,100132.60
2023-05-10T06:55:30.201Z,100131.13
2023-05-10T07:00:33.215Z,100132.08
2023-05-10T07:05:36.236Z,100129.33
2023-05-10T07:10:40.149Z,100125.76
2023-05-10T07:15:43.678Z,100128.17
2023-05-10T07:20:50.037Z,100126.43
2023-05-10T07:25:53.662Z,100129.61
2023-05-10T07:30:56.204Z,100128.63
2023-05-10T07:36:00.080Z,100132.61
2023-05-10T07:41:06.472Z,100127.33
2023-05-10T07:46:11.915Z,100128.52
2023-05-10T07:51:15.469Z,100126.05
2023-05-10T07:56:33.087Z,100122.06
2023-05-10T08:01:35.949Z,100121.07
2023-05-10T08:06:39.064Z,100117.11
2023-05-10T08:11:41.815Z,100118.43
2023-05-10T08:16:44.905Z,100118.35
2023-05-10T08:21:48.525Z,100111.05
2023-05-10T08:26:51.881Z,100107.96
2023-05-10T08:31:54.186Z,100101.85
2023-05-10T08:36:58.230Z,100100.88
2023-05-10T08:42:05.359Z,100098.86
2023-05-10T08:47:10.451Z,100098.33
2023-05-10T08:52:16.595Z,100095.53
2023-05-10T08:57:21.398Z,100094.61
2023-05-10T09:02:24.380Z,100095.04
2023-05-10T09:07:28.729Z,100093.84
2023-05-10T09:12:32.565Z,100092.80
2023-05-10T09:17:35.876Z,100088.95
2023-05-10T09:22:39.175Z,100098.27
2023-05-10T09:27:46.492Z,100092.06
2023-05-10T09:32:49.574Z,100084.35
2023-05-10T09:37:54.721Z,100075.63
2023-05-10T09:43:11.677Z,100074.94
2023-05-10T09:48:15.097Z,100076.55
2023-05-10T09:53:17.655Z,100071.56
2023-05-10T09:58:22.604Z,100077.30
2023-05-10T10:03:28.922Z,100067.14
2023-05-10T10:08:34.494Z,100066.50
2023-05-10T10:13:41.349Z,100061.84
2023-05-10T10:18:45.195Z,100055.88
2023-05-10T10:23:48.501Z,100053.69
2023-05-10T10:29:13.421Z,100057.02
2023-05-10T10:34:31.639Z,100045.55
2023-05-10T10:39:38.057Z,100048.81
2023-05-10T10:44:43.026Z,100040.57
2023-05-10T10:49:52.379Z,100038.02
2023-05-10T10:55:04.836Z,100037.10
2023-05-10T11:00:33.698Z,100038.02
2023-05-10T11:05:41.368Z,100035.33
2023-05-10T11:10:54.751Z,100028.77
2023-05-10T11:16:00.860Z,100030.15
2023-05-10T11:21:10.120Z,100037.16
2023-05-10T11:26:14.387Z,100024.37
2023-05-10T11:31:20.194Z,100013.15
2023-05-10T11:36:26.850Z,100010.98
2023-05-10T11:41:30.621Z,100015.73
2023-05-10T11:46:33.139Z,100006.54
2023-05-10T11:51:40.048Z,100010.89
2023-05-10T11:56:45.589Z,100006.18
2023-05-10T12:01:49.646Z,100008.10
2023-05-10T12:06:54.204Z,99999.99
2023-05-10T12:11:58.017Z,99999.41
2023-05-10T12:17:01.321Z,100000.60
2023-05-10T12:22:06.465Z,100001.31
2023-05-10T12:27:10.234Z,99997.98
2023-05-10T12:32:13.841Z,99998.84
2023-05-10T12:37:17.392Z,100000.45
2023-05-10T12:42:21.686Z,99993.19
2023-05-10T12:47:25.645Z,99990.14
2023-05-10T12:52:29.431Z,99997.64
2023-05-10T12:57:32.553Z,99990.80
2023-05-10T13:02:37.695Z,99985.44
2023-05-10T13:07:42.168Z,99991.75
2023-05-10T13:12:47.791Z,99990.35
2023-05-10T13:17:51.856Z,99988.09
2023-05-10T13:22:57.382Z,99982.94
2023-05-10T13:28:03.577Z,99970.77
2023-05-10T13:33:07.400Z,99972.58
2023-05-10T13:38:10.132Z,99969.49
2023-05-10T13:43:12.970Z,99961.88
2023-05-10T13:48:16.448Z,99954.13
2023-05-10T13:53:22.196Z,99953.21
2023-05-10T13:58:24.629Z,99948.66
2023-05-10T14:03:27.242Z,99949.91
2023-05-10T14:08:30.561Z,99943.64
2023-05-10T14:13:33.740Z,99939.97
2023-05-10T14:18:36.991Z,99938.82
2023-05-10T14:23:42.326Z,99935.20
2023-05-10T14:28:46.416Z,99932.99
2023-05-10T14:33:50.854Z,99938.88
2023-05-10T14:38:54.654Z,99937.30
2023-05-10T14:44:00.573Z,99934.76
2023-05-10T14:49:03.869Z,99936.16
2023-05-10T14:54:08.934Z,99931.23
2023-05-10T14:59:12.459Z,99925.11
2023-05-10T15:04:18.616Z,99928.77
2023-05-10T15:09:28.687Z,99925.27
2023-05-10T15:14:33.245Z,99924.38
2023-05-10T15:19:36.722Z,99926.02
2023-05-10T15:24:39.196Z,99925.70
2023-05-10T15:29:41.388Z,99927.92
2023-05-10T15:34:44.095Z,99931.97
2023-05-10T15:39:46.417Z,99929.04
2023-05-10T15:44:50.822Z,99928.46
2023-05-10T15:49:54.894Z,99927.36
2023-05-10T15:54:58.510Z,99931.23
2023-05-10T16:00:01.878Z,99930.15
2023-05-10T16:05:04.919Z,99926.52
2023-05-10T16:10:11.135Z,99921.09
2023-05-10T16:15:14.299Z,99930.97
2023-05-10T16:20:16.283Z,99932.46
2023-05-10T16:25:20.157Z,99934.99
2023-05-10T16:30:24.968Z,99934.14
2023-05-10T16:35:29.711Z,99935.29
2023-05-10T16:40:34.964Z,99938.36
2023-05-10T16:45:37.614Z,99939.36
2023-05-10T16:50:44.653Z,99942.88
2023-05-10T16:55:48.067Z,99942.30
2023-05-10T17:00:53.753Z,99946.02
2023-05-10T17:05:57.539Z,99951.10
2023-05-10T17:11:05.127Z,99952.09
2023-05-10T17:16:09.104Z,99961.77
2023-05-10T17:21:14.785Z,99965.07
2023-05-10T17:26:21.363Z,99970.92
2023-05-10T17:31:29.895Z,99975.09
2023-05-10T17:36:38.697Z,99976.28
2023-05-10T17:41:42.891Z,99979.95
2023-05-10T17:46:49.978Z,99984.17
2023-05-10T17:51:55.066Z,99990.89
2023-05-10T17:57:01.993Z,99995.42
2023-05-10T18:02:05.352Z,100002.65
2023-05-10T18:07:09.711Z,100006.15
2023-05-10T18:12:13.004Z,100012.98
2023-05-10T18:17:17.961Z,100011.64
2023-05-10T18:22:23.199Z,100017.84
2023-05-10T18:27:26.977Z,100022.30
2023-05-10T18:32:31.854Z,100025.33
2023-05-10T18:37:37.051Z,100028.35
2023-05-10T18:42:39.517Z,100034.79
2023-05-10T18:47:44.002Z,100042.17
2023-05-10T18:52:52.917Z,100046.18
2023-05-10T18:57:58.803Z,100051.11
2023-05-10T19:03:03.352Z,100049.86
2023-05-10T19:08:08.089Z,100055.27
2023-05-10T19:13:10.782Z,100064.11
2023-05-10T19:18:15.512Z,100066.02
2023-05-10T19:23:18.446Z,100071.89
2023-05-10T19:28:21.485Z,100070.70
2023-05-10T19:33:25.183Z,100069.42
2023-05-10T19:38:28.800Z,100069.20
2023-05-10T19:43:40.171Z,100069.79
2023-05-10T19:48:43.545Z,100074.31
2023-05-10T19:53:47.360Z,100074.66
2023-05-10T19:58:52.919Z,100081.85
2023-05-10T20:03:56.910Z,100087.84
2023-05-10T20:09:00.860Z,100090.05
2023-05-10T20:14:04.626Z,100093.59
2023-05-10T20:19:09.161Z,100089.65
2023-05-10T20:24:12.564Z,100091.14
2023-05-10T20:29:19.422Z,100092.29
2023-05-10T20:34:22.611Z,100092.63
2023-05-10T20:39:26.369Z,100093.19
2023-05-10T20:44:29.318Z,100094.75
2023-05-10T20:49:38.130Z,100094.59
2023-05-10T20:54:41.547Z,100101.88
2023-05-10T20:59:44.601Z,100108.20
2023-05-10T21:04:48.588Z,100111.86
2023-05-10T21:09:53.557Z,100113.75
2023-05-10T21:14:57.310Z,100114.21
2023-05-10T21:20:01.587Z,100116.80
2023-05-10T21:25:06.195Z,100115.69
2023-05-10T21:30:11.049Z,100115.92
2023-05-10T21:35:15.582Z,100116.79
2023-05-10T21:40:19.540Z,100113.65
2023-05-10T21:45:22.701Z,100110.58
2023-05-10T21:50:25.140Z,100113.08
2023-05-10T21:55:28.052Z,100116.66
2023-05-10T22:00:34.180Z,100122.06
2023-05-10T22:05:38.770Z,100124.56
2023-05-10T22:10:42.999Z,100124.54
2023-05-10T22:15:46.793Z,100128.66
2023-05-10T22:20:50.959Z,100125.45
2023-05-10T22:25:55.086Z,100129.08
2023-05-10T22:30:58.784Z,100133.77
2023-05-10T22:36:01.867Z,100133.99
2023-05-10T22:41:04.614Z,100136.94
2023-05-10T22:46:07.137Z,100135.41
2023-05-10T22:51:10.507Z,100142.88
2023-05-10T22:56:14.591Z,100141.27
2023-05-10T23:01:17.470Z,100141.64
2023-05-10T23:06:20.752Z,100142.48
2023-05-10T23:11:24.515Z,100144.06
2023-05-10T23:16:26.779Z,100144.16
2023-05-10T23:21:32.006Z,100148.88
2023-05-10T23:26:36.069Z,100144.41
2023-05-10T23:31:45.266Z,100145.49
2023-05-10T23:36:49.365Z,100145.17
2023-05-10T23:41:52.087Z,100145.39
2023-05-10T23:46:55.550Z,100141.98
2023-05-10T23:51:58.742Z,100146.80
2023-05-10T23:57:02.754Z,100144.98
